Terminal Aerodrome Forecast
Issued by NWS

Home | Current Version | Previous Version | Text Only | Print | Product List | Glossary On
Versions: 1 2 3 4 5 6 7 8 9 10 11 12 13 14 15 16 17
000
FTUS41 KBTV 031126
TAFRUT
TAF
KRUT 031126Z 0312/0412 VRB05KT P6SM SKC
     FM031700 15007KT P6SM SCT035 BKN050
     FM032000 15010G20KT 3SM BR SCT030 OVC035
     FM040100 15013G23KT 1SM -SN BR SCT003 OVC015
     FM040500 17009KT 3SM -SN BR SCT010 OVC015
     FM040900 21010KT 6SM BR VCSH SCT020 OVC025
      AMD LTD TO CLD VIS AND WIND=

USA.gov is the U.S. government's official web portal to all federal, state and local government web resources and services.